createdAt,value
2018-05-06T00:01:33.266Z,96.60
2018-05-06T00:04:01.609Z,96.50
2018-05-06T00:06:29.138Z,96.50
2018-05-06T00:08:57.652Z,96.70
2018-05-06T00:11:25.178Z,96.80
2018-05-06T00:13:52.738Z,96.90
2018-05-06T00:16:20.279Z,97.00
2018-05-06T00:18:47.827Z,97.30
2018-05-06T00:21:16.116Z,97.20
2018-05-06T00:23:43.633Z,97.20
2018-05-06T00:26:11.190Z,97.40
2018-05-06T00:28:38.716Z,97.90
2018-05-06T00:31:06.282Z,97.80
2018-05-06T00:33:33.889Z,97.80
2018-05-06T00:36:01.394Z,97.80
2018-05-06T00:38:38.357Z,98.20
2018-05-06T00:41:05.982Z,97.90
2018-05-06T00:43:33.747Z,97.90
2018-05-06T00:46:01.272Z,98.00
2018-05-06T00:48:28.844Z,98.10
2018-05-06T00:50:56.378Z,98.20
2018-05-06T00:53:23.927Z,98.20
2018-05-06T00:55:51.448Z,98.40
2018-05-06T00:58:19.769Z,98.80
2018-05-06T01:00:47.310Z,98.80
2018-05-06T01:03:14.868Z,99.00
2018-05-06T01:05:42.404Z,98.80
2018-05-06T01:08:10.724Z,98.20
2018-05-06T01:10:38.259Z,98.20
2018-05-06T01:13:05.818Z,98.30
2018-05-06T01:15:33.349Z,98.30
2018-05-06T01:18:06.393Z,98.30
2018-05-06T01:20:33.945Z,98.20
2018-05-06T01:23:01.476Z,98.40
2018-05-06T01:25:29.034Z,98.50
2018-05-06T01:27:56.559Z,98.30
2018-05-06T01:30:24.112Z,98.50
2018-05-06T01:32:52.427Z,98.60
2018-05-06T01:35:19.998Z,98.60
2018-05-06T01:37:47.525Z,98.60
2018-05-06T01:40:15.817Z,98.20
2018-05-06T01:42:43.364Z,98.30
2018-05-06T01:45:10.884Z,98.40
2018-05-06T01:47:38.431Z,98.10
2018-05-06T01:50:05.963Z,98.20
2018-05-06T01:52:33.521Z,98.10
2018-05-06T01:55:01.057Z,98.00
2018-05-06T01:57:29.376Z,98.20
2018-05-06T01:59:56.936Z,98.20
2018-05-06T02:19:44.037Z,92.00
2018-05-06T02:22:11.564Z,91.70
2018-05-06T02:24:39.116Z,91.70
2018-05-06T02:27:06.663Z,91.60
2018-05-06T02:29:34.203Z,91.90
2018-05-06T02:32:01.754Z,92.10
2018-05-06T02:34:29.291Z,92.20
2018-05-06T02:36:56.845Z,92.60
2018-05-06T02:39:25.144Z,93.20
2018-05-06T02:41:52.694Z,93.10
2018-05-06T02:44:21.171Z,93.50
2018-05-06T02:46:48.700Z,93.70
2018-05-06T02:49:16.260Z,93.60
2018-05-06T02:51:44.564Z,93.20
2018-05-06T02:54:12.143Z,93.10
2018-05-06T02:56:39.675Z,92.90
2018-05-06T02:59:08.210Z,92.60
2018-05-06T03:01:35.742Z,92.40
2018-05-06T03:04:03.264Z,92.70
2018-05-06T03:06:30.821Z,92.80
2018-05-06T03:08:59.116Z,92.80
2018-05-06T03:11:26.679Z,92.80
2018-05-06T03:13:55.158Z,92.80
2018-05-06T03:16:22.717Z,92.90
2018-05-06T03:18:50.255Z,92.70
2018-05-06T03:21:18.552Z,92.20
2018-05-06T03:23:46.105Z,92.20
2018-05-06T03:26:13.645Z,92.10
2018-05-06T03:28:41.952Z,92.10
2018-05-06T03:31:09.487Z,92.10
2018-05-06T03:33:37.813Z,92.50
2018-05-06T03:36:05.347Z,92.40
2018-05-06T03:38:32.864Z,92.60
2018-05-06T03:41:00.431Z,92.60
2018-05-06T03:43:28.968Z,92.70
2018-05-06T03:45:56.519Z,92.90
2018-05-06T03:48:24.044Z,92.90
2018-05-06T03:50:51.592Z,92.80
2018-05-06T03:53:19.119Z,92.90
2018-05-06T03:55:46.653Z,93.00
2018-05-06T03:58:26.160Z,93.00
2018-05-06T04:00:54.449Z,93.40
2018-05-06T04:03:21.997Z,93.40
2018-05-06T04:05:49.623Z,93.60
2018-05-06T04:08:17.115Z,94.10
2018-05-06T04:10:44.645Z,94.40
2018-05-06T04:13:12.189Z,94.60
2018-05-06T04:15:39.733Z,94.70
2018-05-06T04:18:07.294Z,94.70
2018-05-06T04:20:34.821Z,94.70
2018-05-06T04:23:02.378Z,94.70
2018-05-06T04:25:29.927Z,95.10
2018-05-06T04:27:57.489Z,95.50
2018-05-06T04:30:25.020Z,95.40
2018-05-06T04:32:52.553Z,95.20
2018-05-06T04:35:20.109Z,95.20
2018-05-06T04:37:47.634Z,95.30
2018-05-06T04:40:15.190Z,95.50
2018-05-06T04:42:42.721Z,95.40
2018-05-06T04:45:10.284Z,95.60
2018-05-06T04:47:39.535Z,95.60
2018-05-06T04:50:07.065Z,95.60
2018-05-06T04:52:34.621Z,95.90
2018-05-06T04:55:02.143Z,96.00
2018-05-06T04:57:33.360Z,96.10
2018-05-06T05:00:00.952Z,96.00
2018-05-06T05:02:28.502Z,96.00
2018-05-06T05:04:56.028Z,95.80
2018-05-06T05:07:23.579Z,95.80
2018-05-06T05:09:51.127Z,95.90
2018-05-06T05:12:18.649Z,95.90
2018-05-06T05:14:46.199Z,95.90
2018-05-06T05:17:13.725Z,96.80
2018-05-06T05:19:41.285Z,96.70
2018-05-06T05:22:08.817Z,96.30
2018-05-06T05:24:36.376Z,96.50
2018-05-06T05:27:03.892Z,97.20
2018-05-06T05:29:32.201Z,96.80
2018-05-06T05:31:59.733Z,96.70
2018-05-06T05:34:28.051Z,96.90
2018-05-06T05:36:55.612Z,96.90
2018-05-06T05:39:23.144Z,96.50
2018-05-06T05:41:50.716Z,96.20
2018-05-06T05:44:19.004Z,96.50
2018-05-06T05:46:47.528Z,96.50
2018-05-06T05:49:16.021Z,96.20
2018-05-06T05:51:43.576Z,95.90
2018-05-06T05:54:11.096Z,95.90
2018-05-06T05:56:38.649Z,95.60
2018-05-06T05:59:06.180Z,95.80
2018-05-06T06:01:33.743Z,95.70
2018-05-06T06:04:01.286Z,95.30
2018-05-06T06:06:29.775Z,95.90
2018-05-06T06:08:58.089Z,96.40
2018-05-06T06:11:25.625Z,96.40
2018-05-06T06:13:53.186Z,96.10
2018-05-06T06:16:20.712Z,95.60
2018-05-06T06:18:48.260Z,95.50
2018-05-06T06:21:15.797Z,95.70
2018-05-06T06:23:43.357Z,95.60
2018-05-06T06:26:10.887Z,95.60
2018-05-06T06:28:38.416Z,95.60
2018-05-06T06:31:06.748Z,96.00
2018-05-06T06:33:34.279Z,96.00
2018-05-06T06:36:01.840Z,96.10
2018-05-06T06:38:29.369Z,95.20
2018-05-06T06:40:58.893Z,96.30
2018-05-06T06:43:26.413Z,95.80
2018-05-06T06:45:54.928Z,95.00
2018-05-06T06:48:22.457Z,95.10
2018-05-06T06:50:50.005Z,95.00
2018-05-06T06:53:17.545Z,94.80
2018-05-06T06:55:45.094Z,95.00
2018-05-06T06:58:12.675Z,95.10
2018-05-06T07:00:40.197Z,94.70
2018-05-06T07:03:07.744Z,94.40
2018-05-06T07:05:35.278Z,93.90
2018-05-06T07:08:02.827Z,94.40
2018-05-06T07:10:30.358Z,95.00
2018-05-06T07:12:57.904Z,94.70
2018-05-06T07:15:25.436Z,94.80
2018-05-06T07:17:53.040Z,93.40
2018-05-06T07:20:20.565Z,94.10
2018-05-06T07:22:48.084Z,93.60
2018-05-06T07:25:15.634Z,93.40
2018-05-06T07:27:43.152Z,93.90
2018-05-06T07:30:10.708Z,93.70
2018-05-06T07:32:38.241Z,93.60
2018-05-06T07:35:05.801Z,93.20
2018-05-06T07:37:34.113Z,92.70
2018-05-06T07:40:01.656Z,92.70
2018-05-06T07:42:29.202Z,92.80
2018-05-06T07:44:56.748Z,93.00
2018-05-06T07:47:24.309Z,92.80
2018-05-06T07:49:52.597Z,91.80
2018-05-06T07:52:20.140Z,91.70
2018-05-06T07:54:48.432Z,91.60
2018-05-06T07:57:16.749Z,90.80
2018-05-06T07:59:44.264Z,90.80
2018-05-06T08:02:12.582Z,91.80
2018-05-06T08:04:40.100Z,91.80
2018-05-06T08:07:08.388Z,91.60
2018-05-06T08:09:35.945Z,91.60
2018-05-06T08:12:03.485Z,91.30
2018-05-06T08:14:31.052Z,91.20
2018-05-06T08:16:59.349Z,89.30
2018-05-06T08:19:26.888Z,89.30
2018-05-06T08:21:56.155Z,89.10
2018-05-06T08:24:23.727Z,89.10
2018-05-06T08:26:51.249Z,88.30
2018-05-06T08:29:18.795Z,87.90
2018-05-06T08:31:46.319Z,87.30
2018-05-06T08:34:13.844Z,87.80
2018-05-06T08:36:41.606Z,88.20
2018-05-06T08:39:09.961Z,86.90
2018-05-06T08:41:37.520Z,86.80
2018-05-06T08:44:05.048Z,86.50
2018-05-06T08:46:32.596Z,85.60
2018-05-06T08:49:00.889Z,85.10
2018-05-06T08:51:29.527Z,85.10
2018-05-06T08:53:57.956Z,83.30
2018-05-06T08:56:25.504Z,84.20
2018-05-06T08:58:53.038Z,84.40
2018-05-06T09:01:20.584Z,84.50
2018-05-06T09:03:48.140Z,85.00
2018-05-06T09:06:15.668Z,83.80
2018-05-06T09:08:43.231Z,82.20
2018-05-06T09:11:11.794Z,82.80
2018-05-06T09:13:40.089Z,83.30
2018-05-06T09:16:08.619Z,83.30
2018-05-06T09:18:36.169Z,82.70
2018-05-06T09:21:03.692Z,82.30
2018-05-06T09:23:31.223Z,82.30
2018-05-06T09:25:59.731Z,80.80
2018-05-06T09:28:27.262Z,82.20
2018-05-06T09:30:54.850Z,81.90
2018-05-06T09:33:22.371Z,81.10
2018-05-06T09:35:49.958Z,80.40
2018-05-06T09:38:17.476Z,79.90
2018-05-06T09:40:45.840Z,79.50
2018-05-06T09:43:13.360Z,79.50
2018-05-06T09:45:40.924Z,79.10
2018-05-06T09:48:08.465Z,76.80
2018-05-06T09:50:35.993Z,74.60
2018-05-06T09:53:04.324Z,73.80
2018-05-06T09:55:31.880Z,73.70
2018-05-06T09:57:59.429Z,75.60
2018-05-06T10:00:26.963Z,76.80
2018-05-06T10:02:56.452Z,74.40
2018-05-06T10:05:23.999Z,74.70
2018-05-06T10:07:51.543Z,76.60
2018-05-06T10:10:19.273Z,74.80
2018-05-06T10:12:46.807Z,74.70
2018-05-06T10:15:14.372Z,73.70
2018-05-06T10:17:41.896Z,73.40
2018-05-06T10:20:11.417Z,73.00
2018-05-06T10:22:38.944Z,75.00
2018-05-06T10:25:06.529Z,75.20
2018-05-06T10:27:34.818Z,75.00
2018-05-06T10:30:02.379Z,74.90
2018-05-06T10:32:29.901Z,74.60
2018-05-06T10:34:58.196Z,72.90
2018-05-06T10:37:26.513Z,73.00
2018-05-06T10:39:54.035Z,73.00
2018-05-06T10:42:22.391Z,73.50
2018-05-06T10:44:49.920Z,73.50
2018-05-06T10:47:19.464Z,74.20
2018-05-06T10:49:47.796Z,69.60
2018-05-06T10:52:17.320Z,69.60
2018-05-06T10:54:45.816Z,70.50
2018-05-06T10:57:14.298Z,70.90
2018-05-06T10:59:41.833Z,71.00
2018-05-06T11:02:09.402Z,70.50
2018-05-06T11:04:37.929Z,69.40
2018-05-06T11:07:07.175Z,69.90
2018-05-06T11:09:34.735Z,70.00
2018-05-06T11:12:02.312Z,70.00
2018-05-06T11:14:29.856Z,69.60
2018-05-06T11:16:57.378Z,69.00
2018-05-06T11:19:24.938Z,67.80
2018-05-06T11:21:52.464Z,68.60
2018-05-06T11:24:20.025Z,69.20
2018-05-06T11:26:47.553Z,68.50
2018-05-06T11:29:15.116Z,67.90
2018-05-06T11:31:42.638Z,67.70
2018-05-06T11:34:10.197Z,68.30
2018-05-06T11:36:37.730Z,69.00
2018-05-06T11:39:05.302Z,69.80
2018-05-06T11:41:32.862Z,68.10
2018-05-06T11:44:00.392Z,68.00
2018-05-06T11:46:28.905Z,67.20
2018-05-06T11:48:56.446Z,67.00
2018-05-06T11:51:24.787Z,65.40
2018-05-06T11:53:52.318Z,65.40
2018-05-06T11:56:19.874Z,64.50
2018-05-06T11:58:47.399Z,65.40
2018-05-06T12:01:14.958Z,66.10
2018-05-06T12:03:42.489Z,66.00
2018-05-06T12:06:10.025Z,64.60
2018-05-06T12:08:37.590Z,64.30
2018-05-06T12:11:05.141Z,63.50
2018-05-06T12:13:34.628Z,64.00
2018-05-06T12:16:02.236Z,62.50
2018-05-06T12:18:29.716Z,60.80
2018-05-06T12:20:57.247Z,61.10
2018-05-06T12:23:25.763Z,60.20
2018-05-06T12:25:53.851Z,58.70
2018-05-06T12:28:21.410Z,58.70
2018-05-06T12:30:48.934Z,59.50
2018-05-06T12:33:16.482Z,60.10
2018-05-06T12:35:44.019Z,59.80
2018-05-06T12:38:11.544Z,59.20
2018-05-06T12:40:39.128Z,59.40
2018-05-06T12:43:06.652Z,60.00
2018-05-06T12:45:34.223Z,58.30
2018-05-06T12:48:01.768Z,58.50
2018-05-06T12:50:29.324Z,58.90
2018-05-06T12:52:56.847Z,57.40
2018-05-06T12:55:24.414Z,57.80
2018-05-06T12:57:51.972Z,57.30
2018-05-06T13:00:19.536Z,57.40
2018-05-06T13:02:47.067Z,56.00
2018-05-06T13:05:14.602Z,53.80
2018-05-06T13:07:42.155Z,54.20
2018-05-06T13:10:09.670Z,54.40
2018-05-06T13:12:37.225Z,54.60
2018-05-06T13:15:05.741Z,52.30
2018-05-06T13:17:33.530Z,52.20
2018-05-06T13:20:01.130Z,52.10
2018-05-06T13:22:28.682Z,51.70
2018-05-06T13:24:56.216Z,51.40
2018-05-06T13:27:23.770Z,51.70
2018-05-06T13:29:51.316Z,50.40
2018-05-06T13:32:19.197Z,49.30
2018-05-06T13:34:46.784Z,47.60
2018-05-06T13:37:15.232Z,46.60
2018-05-06T13:39:43.372Z,46.80
2018-05-06T13:42:11.732Z,46.70
2018-05-06T13:44:39.292Z,46.70
2018-05-06T13:47:06.860Z,45.80
2018-05-06T13:49:34.449Z,45.50
2018-05-06T13:52:01.993Z,45.40
2018-05-06T13:54:30.317Z,45.10
2018-05-06T13:56:58.833Z,45.00
2018-05-06T13:59:26.408Z,45.10
2018-05-06T14:01:53.975Z,43.80
2018-05-06T14:04:21.499Z,44.60
2018-05-06T14:06:49.070Z,44.60
2018-05-06T14:09:16.637Z,43.40
2018-05-06T14:11:44.204Z,42.30
2018-05-06T14:14:11.737Z,42.70
2018-05-06T14:16:39.268Z,42.40
2018-05-06T14:19:06.817Z,41.70
2018-05-06T14:21:34.361Z,42.20
2018-05-06T14:24:01.948Z,41.30
2018-05-06T14:26:29.479Z,41.10
2018-05-06T14:28:57.041Z,40.50
2018-05-06T14:31:24.591Z,41.20
2018-05-06T14:33:52.116Z,39.10
2018-05-06T14:36:19.670Z,39.10
2018-05-06T14:38:47.200Z,39.30
2018-05-06T14:41:14.760Z,37.50
2018-05-06T14:43:42.322Z,36.50
2018-05-06T14:49:09.989Z,35.70
2018-05-06T14:51:37.581Z,35.60
2018-05-06T14:54:05.108Z,35.00
2018-05-06T14:56:33.576Z,34.10
2018-05-06T14:59:01.135Z,33.50
2018-05-06T15:01:28.675Z,34.50
2018-05-06T15:03:56.233Z,33.20
2018-05-06T15:06:23.763Z,32.90
2018-05-06T15:08:51.320Z,33.10
2018-05-06T15:11:18.860Z,32.60
2018-05-06T15:13:46.383Z,32.80
2018-05-06T15:16:13.923Z,36.20
2018-05-06T15:18:42.268Z,42.90
2018-05-06T15:21:09.932Z,42.90
2018-05-06T15:23:37.413Z,43.80
2018-05-06T15:26:04.983Z,46.30
2018-05-06T15:28:33.272Z,45.20
2018-05-06T15:31:02.797Z,45.20
2018-05-06T15:33:30.317Z,47.20
2018-05-06T15:35:58.600Z,48.50
2018-05-06T15:38:26.278Z,48.50
2018-05-06T15:40:53.812Z,47.40
2018-05-06T15:43:23.321Z,48.30
2018-05-06T15:45:50.859Z,48.70
2018-05-06T15:48:18.407Z,47.70
2018-05-06T15:50:45.944Z,46.20
2018-05-06T15:53:13.500Z,44.70
2018-05-06T15:55:41.025Z,42.10
2018-05-06T15:58:09.315Z,37.70
2018-05-06T16:00:37.337Z,37.60
2018-05-06T16:03:16.800Z,40.30
2018-05-06T16:05:46.696Z,36.70
2018-05-06T16:08:14.244Z,36.60
2018-05-06T16:10:41.801Z,39.70
2018-05-06T16:13:09.334Z,39.60
2018-05-06T16:15:36.924Z,40.80
2018-05-06T16:18:04.453Z,37.00
2018-05-06T16:20:31.972Z,37.60
2018-05-06T16:22:59.526Z,36.70
2018-05-06T16:25:27.832Z,37.10
2018-05-06T16:27:55.383Z,37.10
2018-05-06T16:30:22.929Z,36.20
2018-05-06T16:32:51.265Z,37.30
2018-05-06T16:35:19.748Z,37.20
2018-05-06T16:37:49.255Z,37.20
2018-05-06T16:40:16.783Z,38.30
2018-05-06T16:42:44.304Z,40.60
2018-05-06T16:45:12.622Z,44.10
2018-05-06T16:47:40.157Z,44.10
2018-05-06T16:50:07.713Z,44.70
2018-05-06T16:52:35.997Z,47.40
2018-05-06T16:55:04.516Z,47.30
2018-05-06T16:57:32.092Z,47.00
2018-05-06T16:59:59.639Z,47.10
2018-05-06T17:02:27.185Z,47.00
2018-05-06T17:04:54.744Z,47.30
2018-05-06T17:07:22.304Z,47.30
2018-05-06T17:09:49.831Z,47.20
2018-05-06T17:12:17.388Z,47.90
2018-05-06T17:14:44.912Z,48.30
2018-05-06T17:17:12.520Z,47.90
2018-05-06T17:19:40.047Z,48.10
2018-05-06T17:22:07.625Z,47.80
2018-05-06T17:24:35.164Z,47.40
2018-05-06T17:27:02.700Z,48.00
2018-05-06T17:29:30.243Z,47.90
2018-05-06T17:31:57.794Z,48.10
2018-05-06T17:34:25.360Z,48.40
2018-05-06T17:36:52.886Z,48.60
2018-05-06T17:39:20.444Z,48.30
2018-05-06T17:41:48.731Z,48.50
2018-05-06T17:44:16.273Z,48.40
2018-05-06T17:46:44.815Z,48.80
2018-05-06T17:49:12.341Z,49.20
2018-05-06T17:51:48.172Z,48.60
2018-05-06T17:54:15.703Z,49.30
2018-05-06T17:56:43.267Z,49.60
2018-05-06T17:59:11.656Z,49.40
2018-05-06T18:01:39.293Z,49.40
2018-05-06T18:04:07.772Z,49.60
2018-05-06T18:06:36.265Z,49.90
2018-05-06T18:09:03.811Z,49.80
2018-05-06T18:11:32.108Z,49.60
2018-05-06T18:14:01.625Z,49.60
2018-05-06T18:16:29.156Z,49.90
2018-05-06T18:18:56.701Z,50.20
2018-05-06T18:21:24.228Z,49.90
2018-05-06T18:23:51.783Z,50.10
2018-05-06T18:26:19.322Z,50.80
2018-05-06T18:28:46.859Z,51.40
2018-05-06T18:31:14.416Z,51.30
2018-05-06T18:33:41.945Z,51.70
2018-05-06T18:36:09.493Z,51.60
2018-05-06T18:38:37.024Z,51.90
2018-05-06T18:41:04.568Z,52.00
2018-05-06T18:43:33.893Z,52.30
2018-05-06T18:46:01.863Z,54.50
2018-05-06T18:48:29.427Z,55.90
2018-05-06T18:50:56.951Z,56.60
2018-05-06T18:53:24.502Z,57.50
2018-05-06T18:55:52.798Z,58.30
2018-05-06T18:58:22.303Z,58.30
2018-05-06T19:00:49.832Z,59.30
2018-05-06T19:03:17.399Z,60.20
2018-05-06T19:05:44.948Z,61.80
2018-05-06T19:08:13.488Z,62.10
2018-05-06T19:10:41.978Z,62.30
2018-05-06T19:13:09.502Z,63.00
2018-05-06T19:15:37.238Z,64.70
2018-05-06T19:18:04.769Z,65.60
2018-05-06T19:20:33.087Z,66.30
2018-05-06T19:23:00.665Z,67.90
2018-05-06T19:25:28.237Z,68.40
2018-05-06T19:27:55.785Z,68.90
2018-05-06T19:30:24.292Z,69.30
2018-05-06T19:32:51.893Z,69.90
2018-05-06T19:35:20.385Z,70.50
2018-05-06T19:37:48.001Z,71.30
2018-05-06T19:40:15.491Z,72.10
2018-05-06T19:42:43.039Z,72.70
2018-05-06T19:45:10.601Z,73.60
2018-05-06T19:47:38.399Z,74.90
2018-05-06T19:50:05.949Z,74.60
2018-05-06T19:52:35.207Z,76.50
2018-05-06T19:55:02.785Z,76.50
2018-05-06T19:57:30.314Z,77.20
2018-05-06T19:59:57.883Z,78.00
2018-05-06T20:02:25.457Z,78.40
2018-05-06T20:04:53.285Z,79.20
2018-05-06T20:07:20.870Z,79.40
2018-05-06T20:09:48.367Z,79.90
2018-05-06T20:12:15.929Z,80.10
2018-05-06T20:14:48.235Z,80.40
2018-05-06T20:17:21.158Z,80.40
2018-05-06T20:19:49.870Z,80.80
2018-05-06T20:22:20.999Z,80.80
2018-05-06T20:24:48.547Z,81.10
2018-05-06T20:27:17.033Z,82.00
2018-05-06T20:29:44.589Z,82.50
2018-05-06T20:32:12.142Z,82.50
2018-05-06T20:34:39.739Z,83.30
2018-05-06T20:37:08.061Z,84.20
2018-05-06T20:39:35.634Z,84.10
2018-05-06T20:42:03.946Z,85.10
2018-05-06T20:44:31.532Z,85.10
2018-05-06T20:46:59.190Z,86.00
2018-05-06T20:49:26.762Z,86.40
2018-05-06T20:51:54.323Z,86.60
2018-05-06T20:54:21.852Z,87.20
2018-05-06T20:56:50.280Z,87.90
2018-05-06T20:59:17.833Z,87.90
2018-05-06T21:01:45.402Z,88.60
2018-05-06T21:04:12.969Z,88.50
2018-05-06T21:06:40.530Z,88.80
2018-05-06T21:09:08.404Z,89.00
2018-05-06T21:11:36.899Z,89.20
2018-05-06T21:14:05.692Z,89.10
2018-05-06T21:16:33.647Z,89.00
2018-05-06T21:19:01.233Z,89.10
2018-05-06T21:21:29.067Z,89.10
2018-05-06T21:23:59.897Z,89.10
2018-05-06T21:26:29.569Z,88.50
2018-05-06T21:28:57.440Z,88.80
2018-05-06T21:31:25.094Z,88.30
2018-05-06T21:33:53.799Z,88.40
2018-05-06T21:36:21.594Z,88.20
2018-05-06T21:38:51.558Z,87.80
2018-05-06T21:41:22.497Z,86.90
2018-05-06T21:43:50.287Z,85.90
2018-05-06T21:46:18.129Z,85.80
2018-05-06T21:48:46.394Z,83.00
2018-05-06T21:51:14.001Z,80.30
2018-05-06T21:53:42.142Z,78.80
2018-05-06T21:56:09.768Z,77.40
2018-05-06T21:58:40.334Z,74.50
2018-05-06T22:01:10.816Z,74.40
2018-05-06T22:03:42.320Z,73.90
2018-05-06T22:06:10.552Z,73.70
2018-05-06T22:08:39.866Z,72.30
2018-05-06T22:11:07.388Z,72.10
2018-05-06T22:13:34.937Z,70.70
2018-05-06T22:16:02.488Z,70.30
2018-05-06T22:18:30.334Z,67.90
2018-05-06T22:20:59.817Z,67.90
2018-05-06T22:23:28.327Z,66.80
2018-05-06T22:25:55.918Z,66.90
2018-05-06T22:28:24.260Z,66.60
2018-05-06T22:30:51.808Z,66.70
2018-05-06T22:33:19.320Z,66.80
2018-05-06T22:35:47.820Z,67.00
2018-05-06T22:38:15.376Z,66.10
2018-05-06T22:40:42.927Z,65.50
2018-05-06T22:43:12.467Z,64.30
2018-05-06T22:45:40.807Z,64.20
2018-05-06T22:48:11.109Z,64.00
2018-05-06T22:50:38.664Z,63.90
2018-05-06T22:53:06.297Z,62.90
2018-05-06T22:55:33.867Z,63.20
2018-05-06T22:58:02.815Z,63.50
2018-05-06T23:00:30.377Z,64.30
2018-05-06T23:02:58.681Z,64.60
2018-05-06T23:05:26.249Z,64.50
2018-05-06T23:07:53.807Z,63.10
2018-05-06T23:10:23.317Z,63.50
2018-05-06T23:12:50.848Z,63.00
2018-05-06T23:15:18.437Z,62.20
2018-05-06T23:17:46.105Z,62.50
2018-05-06T23:20:13.667Z,62.10
2018-05-06T23:22:41.221Z,62.00
2018-05-06T23:25:08.775Z,61.30
2018-05-06T23:27:36.385Z,61.50
2018-05-06T23:30:03.933Z,62.00
2018-05-06T23:32:31.507Z,61.00
2018-05-06T23:34:59.873Z,61.60
2018-05-06T23:37:27.403Z,61.60
2018-05-06T23:39:54.961Z,62.10
2018-05-06T23:42:22.484Z,60.90
2018-05-06T23:44:50.047Z,60.80
2018-05-06T23:47:17.592Z,61.50
2018-05-06T23:49:45.160Z,61.10
2018-05-06T23:52:12.712Z,61.50
2018-05-06T23:54:40.250Z,61.00
2018-05-06T23:57:08.601Z,61.60
2018-05-06T23:59:36.130Z,61.60
